sensor_id;sensor_type;location;lat;lon;timestamp;P1;durP1;ratioP1;P2;durP2;ratioP2
77938;SDS011;67136;47.546;21.630;2023-05-21T00:01:07;6.20;;;3.60;;
77938;SDS011;67136;47.546;21.630;2023-05-21T00:04:13;9.88;;;4.68;;
77938;SDS011;67136;47.546;21.630;2023-05-21T00:07:16;8.70;;;4.05;;
77938;SDS011;67136;47.546;21.630;2023-05-21T00:10:23;6.90;;;3.70;;
77938;SDS011;67136;47.546;21.630;2023-05-21T00:13:31;7.72;;;4.15;;
77938;SDS011;67136;47.546;21.630;2023-05-21T00:16:33;7.10;;;3.83;;
77938;SDS011;67136;47.546;21.630;2023-05-21T00:19:36;6.95;;;4.12;;
77938;SDS011;67136;47.546;21.630;2023-05-21T00:22:41;8.38;;;4.05;;
77938;SDS011;67136;47.546;21.630;2023-05-21T00:25:44;8.35;;;4.28;;
77938;SDS011;67136;47.546;21.630;2023-05-21T00:28:48;7.45;;;4.32;;
77938;SDS011;67136;47.546;21.630;2023-05-21T00:31:53;6.50;;;4.10;;
77938;SDS011;67136;47.546;21.630;2023-05-21T00:34:57;5.47;;;3.65;;
77938;SDS011;67136;47.546;21.630;2023-05-21T00:38:02;6.28;;;4.22;;
77938;SDS011;67136;47.546;21.630;2023-05-21T00:41:05;5.10;;;4.12;;
77938;SDS011;67136;47.546;21.630;2023-05-21T00:44:08;6.90;;;4.18;;
77938;SDS011;67136;47.546;21.630;2023-05-21T00:47:13;5.70;;;3.90;;
77938;SDS011;67136;47.546;21.630;2023-05-21T00:50:20;7.25;;;3.95;;
77938;SDS011;67136;47.546;21.630;2023-05-21T00:53:24;6.22;;;4.03;;
77938;SDS011;67136;47.546;21.630;2023-05-21T00:56:26;6.95;;;4.07;;
77938;SDS011;67136;47.546;21.630;2023-05-21T00:59:32;6.85;;;4.22;;
77938;SDS011;67136;47.546;21.630;2023-05-21T01:02:35;7.23;;;3.80;;
77938;SDS011;67136;47.546;21.630;2023-05-21T01:05:39;8.05;;;4.00;;
77938;SDS011;67136;47.546;21.630;2023-05-21T01:08:46;7.18;;;3.92;;
77938;SDS011;67136;47.546;21.630;2023-05-21T01:11:50;7.50;;;3.58;;
77938;SDS011;67136;47.546;21.630;2023-05-21T01:14:53;7.93;;;4.20;;
77938;SDS011;67136;47.546;21.630;2023-05-21T01:18:02;6.67;;;3.70;;
77938;SDS011;67136;47.546;21.630;2023-05-21T01:21:05;9.73;;;4.40;;
77938;SDS011;67136;47.546;21.630;2023-05-21T01:24:12;6.40;;;4.28;;
77938;SDS011;67136;47.546;21.630;2023-05-21T01:27:16;9.13;;;4.12;;
77938;SDS011;67136;47.546;21.630;2023-05-21T01:30:24;6.25;;;3.85;;
77938;SDS011;67136;47.546;21.630;2023-05-21T01:33:37;6.00;;;4.23;;
77938;SDS011;67136;47.546;21.630;2023-05-21T01:36:51;8.18;;;4.53;;
77938;SDS011;67136;47.546;21.630;2023-05-21T01:40:07;6.30;;;4.00;;
77938;SDS011;67136;47.546;21.630;2023-05-21T01:43:16;6.35;;;4.28;;
77938;SDS011;67136;47.546;21.630;2023-05-21T01:46:21;5.78;;;4.20;;
77938;SDS011;67136;47.546;21.630;2023-05-21T01:49:26;6.27;;;4.20;;
77938;SDS011;67136;47.546;21.630;2023-05-21T01:52:30;7.62;;;4.07;;
77938;SDS011;67136;47.546;21.630;2023-05-21T01:55:33;5.78;;;4.05;;
77938;SDS011;67136;47.546;21.630;2023-05-21T01:58:40;7.43;;;4.10;;
77938;SDS011;67136;47.546;21.630;2023-05-21T02:01:45;6.07;;;4.25;;
77938;SDS011;67136;47.546;21.630;2023-05-21T02:04:48;7.97;;;4.53;;
77938;SDS011;67136;47.546;21.630;2023-05-21T02:07:51;9.15;;;4.72;;
77938;SDS011;67136;47.546;21.630;2023-05-21T02:10:54;8.25;;;4.18;;
77938;SDS011;67136;47.546;21.630;2023-05-21T02:13:57;7.47;;;4.72;;
77938;SDS011;67136;47.546;21.630;2023-05-21T02:16:59;7.78;;;4.18;;
77938;SDS011;67136;47.546;21.630;2023-05-21T02:20:07;8.13;;;4.73;;
77938;SDS011;67136;47.546;21.630;2023-05-21T02:23:13;7.45;;;4.57;;
77938;SDS011;67136;47.546;21.630;2023-05-21T02:26:16;9.93;;;4.50;;
77938;SDS011;67136;47.546;21.630;2023-05-21T02:29:19;7.95;;;4.50;;
77938;SDS011;67136;47.546;21.630;2023-05-21T02:32:21;8.25;;;4.87;;
77938;SDS011;67136;47.546;21.630;2023-05-21T02:35:25;8.50;;;5.23;;
77938;SDS011;67136;47.546;21.630;2023-05-21T02:38:28;7.75;;;4.80;;
77938;SDS011;67136;47.546;21.630;2023-05-21T02:41:34;7.95;;;4.90;;
77938;SDS011;67136;47.546;21.630;2023-05-21T02:44:36;6.95;;;4.72;;
77938;SDS011;67136;47.546;21.630;2023-05-21T02:47:39;7.70;;;5.30;;
77938;SDS011;67136;47.546;21.630;2023-05-21T02:50:42;10.20;;;5.60;;
77938;SDS011;67136;47.546;21.630;2023-05-21T02:53:45;8.27;;;4.93;;
77938;SDS011;67136;47.546;21.630;2023-05-21T02:56:47;8.05;;;5.22;;
77938;SDS011;67136;47.546;21.630;2023-05-21T02:59:50;9.15;;;5.10;;
77938;SDS011;67136;47.546;21.630;2023-05-21T03:02:54;7.25;;;4.55;;
77938;SDS011;67136;47.546;21.630;2023-05-21T03:05:57;10.63;;;4.90;;
77938;SDS011;67136;47.546;21.630;2023-05-21T03:08:59;7.65;;;5.10;;
77938;SDS011;67136;47.546;21.630;2023-05-21T03:12:03;8.43;;;4.87;;
77938;SDS011;67136;47.546;21.630;2023-05-21T03:15:06;8.07;;;5.35;;
77938;SDS011;67136;47.546;21.630;2023-05-21T03:18:10;9.20;;;4.85;;
77938;SDS011;67136;47.546;21.630;2023-05-21T03:21:14;9.60;;;5.27;;
77938;SDS011;67136;47.546;21.630;2023-05-21T03:24:17;6.95;;;4.78;;
77938;SDS011;67136;47.546;21.630;2023-05-21T03:27:19;7.43;;;4.95;;
77938;SDS011;67136;47.546;21.630;2023-05-21T03:30:23;6.00;;;4.35;;
77938;SDS011;67136;47.546;21.630;2023-05-21T03:33:26;8.70;;;4.80;;
77938;SDS011;67136;47.546;21.630;2023-05-21T03:36:29;7.33;;;4.80;;
77938;SDS011;67136;47.546;21.630;2023-05-21T03:39:32;8.85;;;4.32;;
77938;SDS011;67136;47.546;21.630;2023-05-21T03:42:35;8.73;;;4.65;;
77938;SDS011;67136;47.546;21.630;2023-05-21T03:45:37;9.32;;;4.45;;
77938;SDS011;67136;47.546;21.630;2023-05-21T03:48:46;8.82;;;4.53;;
77938;SDS011;67136;47.546;21.630;2023-05-21T03:51:49;7.63;;;4.80;;
77938;SDS011;67136;47.546;21.630;2023-05-21T03:54:52;6.70;;;4.65;;
77938;SDS011;67136;47.546;21.630;2023-05-21T03:57:55;8.27;;;4.70;;
77938;SDS011;67136;47.546;21.630;2023-05-21T04:00:58;7.75;;;4.43;;
77938;SDS011;67136;47.546;21.630;2023-05-21T04:04:03;11.05;;;5.20;;
77938;SDS011;67136;47.546;21.630;2023-05-21T04:07:06;8.13;;;4.57;;
77938;SDS011;67136;47.546;21.630;2023-05-21T04:10:15;8.48;;;5.32;;
77938;SDS011;67136;47.546;21.630;2023-05-21T04:13:18;7.35;;;4.57;;
77938;SDS011;67136;47.546;21.630;2023-05-21T04:16:22;6.90;;;5.30;;
77938;SDS011;67136;47.546;21.630;2023-05-21T04:19:26;12.18;;;5.18;;
77938;SDS011;67136;47.546;21.630;2023-05-21T04:22:29;8.37;;;5.03;;
77938;SDS011;67136;47.546;21.630;2023-05-21T04:25:32;9.68;;;5.40;;
77938;SDS011;67136;47.546;21.630;2023-05-21T04:28:38;10.32;;;5.53;;
77938;SDS011;67136;47.546;21.630;2023-05-21T04:31:43;10.68;;;5.35;;
77938;SDS011;67136;47.546;21.630;2023-05-21T04:34:47;9.10;;;5.50;;
77938;SDS011;67136;47.546;21.630;2023-05-21T04:37:50;10.10;;;5.37;;
77938;SDS011;67136;47.546;21.630;2023-05-21T04:40:57;9.63;;;5.28;;
77938;SDS011;67136;47.546;21.630;2023-05-21T04:43:59;7.93;;;5.65;;
77938;SDS011;67136;47.546;21.630;2023-05-21T04:47:03;10.25;;;5.07;;
77938;SDS011;67136;47.546;21.630;2023-05-21T04:50:06;6.90;;;4.82;;
77938;SDS011;67136;47.546;21.630;2023-05-21T04:53:09;8.17;;;5.57;;
77938;SDS011;67136;47.546;21.630;2023-05-21T04:56:13;7.15;;;5.10;;
77938;SDS011;67136;47.546;21.630;2023-05-21T04:59:20;7.68;;;4.95;;
77938;SDS011;67136;47.546;21.630;2023-05-21T05:02:23;8.98;;;5.30;;
77938;SDS011;67136;47.546;21.630;2023-05-21T05:05:26;6.43;;;4.70;;
77938;SDS011;67136;47.546;21.630;2023-05-21T05:08:33;8.37;;;5.17;;
77938;SDS011;67136;47.546;21.630;2023-05-21T05:11:37;7.43;;;5.03;;
77938;SDS011;67136;47.546;21.630;2023-05-21T05:14:40;8.43;;;5.47;;
77938;SDS011;67136;47.546;21.630;2023-05-21T05:17:43;10.48;;;5.50;;
77938;SDS011;67136;47.546;21.630;2023-05-21T05:20:49;10.30;;;5.37;;
77938;SDS011;67136;47.546;21.630;2023-05-21T05:23:52;9.93;;;5.47;;
77938;SDS011;67136;47.546;21.630;2023-05-21T05:26:55;9.05;;;5.20;;
77938;SDS011;67136;47.546;21.630;2023-05-21T05:29:58;8.65;;;5.15;;
77938;SDS011;67136;47.546;21.630;2023-05-21T05:33:01;8.25;;;4.30;;
77938;SDS011;67136;47.546;21.630;2023-05-21T05:36:04;10.63;;;5.07;;
77938;SDS011;67136;47.546;21.630;2023-05-21T05:39:07;8.53;;;4.90;;
77938;SDS011;67136;47.546;21.630;2023-05-21T05:42:13;12.18;;;4.60;;
77938;SDS011;67136;47.546;21.630;2023-05-21T05:45:16;10.82;;;5.00;;
77938;SDS011;67136;47.546;21.630;2023-05-21T05:48:19;6.03;;;4.18;;
77938;SDS011;67136;47.546;21.630;2023-05-21T05:51:21;8.13;;;4.40;;
77938;SDS011;67136;47.546;21.630;2023-05-21T05:54:24;7.20;;;3.97;;
77938;SDS011;67136;47.546;21.630;2023-05-21T05:57:27;7.35;;;3.97;;
77938;SDS011;67136;47.546;21.630;2023-05-21T06:00:31;7.55;;;3.90;;
77938;SDS011;67136;47.546;21.630;2023-05-21T06:03:34;10.40;;;5.53;;
77938;SDS011;67136;47.546;21.630;2023-05-21T06:06:39;6.15;;;3.97;;
77938;SDS011;67136;47.546;21.630;2023-05-21T06:09:43;6.57;;;3.57;;
77938;SDS011;67136;47.546;21.630;2023-05-21T06:12:45;7.70;;;3.50;;
77938;SDS011;67136;47.546;21.630;2023-05-21T06:15:48;4.35;;;3.40;;
77938;SDS011;67136;47.546;21.630;2023-05-21T06:18:51;5.78;;;3.50;;
77938;SDS011;67136;47.546;21.630;2023-05-21T06:21:54;4.40;;;3.60;;
77938;SDS011;67136;47.546;21.630;2023-05-21T06:24:56;4.23;;;3.33;;
77938;SDS011;67136;47.546;21.630;2023-05-21T06:28:00;5.97;;;3.75;;
77938;SDS011;67136;47.546;21.630;2023-05-21T06:31:02;4.15;;;3.42;;
77938;SDS011;67136;47.546;21.630;2023-05-21T06:34:06;6.03;;;3.62;;
77938;SDS011;67136;47.546;21.630;2023-05-21T06:37:09;4.68;;;3.40;;
77938;SDS011;67136;47.546;21.630;2023-05-21T06:40:12;4.40;;;3.40;;
77938;SDS011;67136;47.546;21.630;2023-05-21T06:43:15;4.80;;;3.40;;
77938;SDS011;67136;47.546;21.630;2023-05-21T06:46:21;7.05;;;3.30;;
77938;SDS011;67136;47.546;21.630;2023-05-21T06:49:25;3.83;;;3.00;;
77938;SDS011;67136;47.546;21.630;2023-05-21T06:52:28;5.00;;;3.35;;
77938;SDS011;67136;47.546;21.630;2023-05-21T06:55:34;4.90;;;3.37;;
77938;SDS011;67136;47.546;21.630;2023-05-21T06:58:38;6.55;;;3.58;;
77938;SDS011;67136;47.546;21.630;2023-05-21T07:01:41;6.20;;;3.58;;
77938;SDS011;67136;47.546;21.630;2023-05-21T07:04:44;4.20;;;3.40;;
77938;SDS011;67136;47.546;21.630;2023-05-21T07:07:46;4.30;;;3.17;;
77938;SDS011;67136;47.546;21.630;2023-05-21T07:10:49;7.67;;;3.30;;
77938;SDS011;67136;47.546;21.630;2023-05-21T07:13:56;4.60;;;3.05;;
77938;SDS011;67136;47.546;21.630;2023-05-21T07:17:02;6.62;;;3.00;;
77938;SDS011;67136;47.546;21.630;2023-05-21T07:20:05;6.65;;;3.10;;
77938;SDS011;67136;47.546;21.630;2023-05-21T07:23:09;7.07;;;2.90;;
77938;SDS011;67136;47.546;21.630;2023-05-21T07:26:12;4.40;;;3.13;;
77938;SDS011;67136;47.546;21.630;2023-05-21T07:29:16;8.20;;;3.20;;
77938;SDS011;67136;47.546;21.630;2023-05-21T07:32:18;4.65;;;2.62;;
77938;SDS011;67136;47.546;21.630;2023-05-21T07:35:22;4.68;;;2.90;;
77938;SDS011;67136;47.546;21.630;2023-05-21T07:38:24;6.53;;;3.15;;
77938;SDS011;67136;47.546;21.630;2023-05-21T07:41:27;4.93;;;3.23;;
77938;SDS011;67136;47.546;21.630;2023-05-21T07:44:31;5.00;;;2.87;;
77938;SDS011;67136;47.546;21.630;2023-05-21T07:47:34;6.18;;;3.40;;
77938;SDS011;67136;47.546;21.630;2023-05-21T07:50:37;5.07;;;3.17;;
77938;SDS011;67136;47.546;21.630;2023-05-21T07:53:40;4.70;;;3.25;;
77938;SDS011;67136;47.546;21.630;2023-05-21T07:56:43;9.60;;;3.07;;
77938;SDS011;67136;47.546;21.630;2023-05-21T07:59:49;5.45;;;3.28;;
77938;SDS011;67136;47.546;21.630;2023-05-21T08:02:52;6.55;;;3.10;;
77938;SDS011;67136;47.546;21.630;2023-05-21T08:05:55;4.20;;;3.10;;
77938;SDS011;67136;47.546;21.630;2023-05-21T08:08:58;5.57;;;3.58;;
77938;SDS011;67136;47.546;21.630;2023-05-21T08:12:05;5.10;;;3.13;;
77938;SDS011;67136;47.546;21.630;2023-05-21T08:15:09;6.87;;;2.92;;
77938;SDS011;67136;47.546;21.630;2023-05-21T08:18:16;7.35;;;3.42;;
77938;SDS011;67136;47.546;21.630;2023-05-21T08:21:19;4.75;;;2.85;;
77938;SDS011;67136;47.546;21.630;2023-05-21T08:24:22;5.07;;;2.87;;
77938;SDS011;67136;47.546;21.630;2023-05-21T08:27:25;6.60;;;3.00;;
77938;SDS011;67136;47.546;21.630;2023-05-21T08:30:28;6.40;;;3.30;;
77938;SDS011;67136;47.546;21.630;2023-05-21T08:33:33;3.83;;;3.22;;
77938;SDS011;67136;47.546;21.630;2023-05-21T08:36:39;4.95;;;3.20;;
77938;SDS011;67136;47.546;21.630;2023-05-21T08:39:45;4.43;;;2.90;;
77938;SDS011;67136;47.546;21.630;2023-05-21T08:42:48;5.03;;;2.70;;
77938;SDS011;67136;47.546;21.630;2023-05-21T08:45:54;4.80;;;2.92;;
77938;SDS011;67136;47.546;21.630;2023-05-21T08:49:00;5.37;;;3.20;;
77938;SDS011;67136;47.546;21.630;2023-05-21T08:52:04;4.72;;;3.12;;
77938;SDS011;67136;47.546;21.630;2023-05-21T08:55:08;3.87;;;3.20;;
77938;SDS011;67136;47.546;21.630;2023-05-21T08:58:13;4.70;;;3.30;;
77938;SDS011;67136;47.546;21.630;2023-05-21T09:01:17;4.90;;;3.40;;
77938;SDS011;67136;47.546;21.630;2023-05-21T09:04:21;5.10;;;3.03;;
77938;SDS011;67136;47.546;21.630;2023-05-21T09:07:25;4.32;;;2.90;;
77938;SDS011;67136;47.546;21.630;2023-05-21T09:10:38;5.75;;;2.90;;
77938;SDS011;67136;47.546;21.630;2023-05-21T09:13:44;4.80;;;3.30;;
77938;SDS011;67136;47.546;21.630;2023-05-21T09:16:47;4.10;;;2.92;;
77938;SDS011;67136;47.546;21.630;2023-05-21T09:23:16;6.75;;;3.00;;
77938;SDS011;67136;47.546;21.630;2023-05-21T09:26:21;4.00;;;3.03;;
77938;SDS011;67136;47.546;21.630;2023-05-21T09:29:26;5.47;;;3.27;;
77938;SDS011;67136;47.546;21.630;2023-05-21T09:32:34;4.22;;;3.00;;
77938;SDS011;67136;47.546;21.630;2023-05-21T09:35:43;4.93;;;2.95;;
77938;SDS011;67136;47.546;21.630;2023-05-21T09:38:49;5.50;;;3.05;;
77938;SDS011;67136;47.546;21.630;2023-05-21T09:41:55;6.37;;;3.08;;
77938;SDS011;67136;47.546;21.630;2023-05-21T09:45:00;4.87;;;3.67;;
77938;SDS011;67136;47.546;21.630;2023-05-21T09:48:03;5.90;;;3.22;;
77938;SDS011;67136;47.546;21.630;2023-05-21T09:51:13;6.37;;;3.20;;
77938;SDS011;67136;47.546;21.630;2023-05-21T09:54:43;8.50;;;3.35;;
77938;SDS011;67136;47.546;21.630;2023-05-21T09:57:53;4.68;;;3.45;;
77938;SDS011;67136;47.546;21.630;2023-05-21T10:00:56;7.67;;;3.23;;
77938;SDS011;67136;47.546;21.630;2023-05-21T10:04:03;9.00;;;3.45;;
77938;SDS011;67136;47.546;21.630;2023-05-21T10:07:10;5.50;;;3.30;;
77938;SDS011;67136;47.546;21.630;2023-05-21T10:10:13;7.22;;;3.65;;
77938;SDS011;67136;47.546;21.630;2023-05-21T10:13:18;7.87;;;3.92;;
77938;SDS011;67136;47.546;21.630;2023-05-21T10:16:24;6.73;;;3.57;;
77938;SDS011;67136;47.546;21.630;2023-05-21T10:19:30;4.95;;;3.72;;
77938;SDS011;67136;47.546;21.630;2023-05-21T10:22:36;6.97;;;3.70;;
77938;SDS011;67136;47.546;21.630;2023-05-21T10:25:38;4.93;;;3.58;;
77938;SDS011;67136;47.546;21.630;2023-05-21T10:28:50;4.30;;;3.78;;
77938;SDS011;67136;47.546;21.630;2023-05-21T10:32:00;8.43;;;3.70;;
77938;SDS011;67136;47.546;21.630;2023-05-21T10:35:07;3.70;;;3.17;;
77938;SDS011;67136;47.546;21.630;2023-05-21T10:38:11;6.12;;;3.30;;
77938;SDS011;67136;47.546;21.630;2023-05-21T10:41:15;5.25;;;3.22;;
77938;SDS011;67136;47.546;21.630;2023-05-21T10:44:37;5.72;;;3.78;;
77938;SDS011;67136;47.546;21.630;2023-05-21T10:51:27;4.90;;;3.30;;
77938;SDS011;67136;47.546;21.630;2023-05-21T11:01:36;7.22;;;3.60;;
77938;SDS011;67136;47.546;21.630;2023-05-21T11:04:45;5.60;;;4.00;;
77938;SDS011;67136;47.546;21.630;2023-05-21T11:07:56;7.97;;;3.78;;
77938;SDS011;67136;47.546;21.630;2023-05-21T11:10:59;6.12;;;3.70;;
77938;SDS011;67136;47.546;21.630;2023-05-21T11:14:06;3.87;;;3.12;;
77938;SDS011;67136;47.546;21.630;2023-05-21T11:17:40;4.35;;;3.35;;
77938;SDS011;67136;47.546;21.630;2023-05-21T11:20:55;6.30;;;3.67;;
77938;SDS011;67136;47.546;21.630;2023-05-21T11:24:07;4.93;;;3.47;;
77938;SDS011;67136;47.546;21.630;2023-05-21T11:27:12;9.25;;;3.72;;
77938;SDS011;67136;47.546;21.630;2023-05-21T11:30:16;6.82;;;3.83;;
77938;SDS011;67136;47.546;21.630;2023-05-21T11:33:20;5.05;;;3.30;;
77938;SDS011;67136;47.546;21.630;2023-05-21T11:36:27;6.13;;;3.57;;
77938;SDS011;67136;47.546;21.630;2023-05-21T11:39:29;4.47;;;3.30;;
77938;SDS011;67136;47.546;21.630;2023-05-21T11:42:41;3.47;;;3.17;;
77938;SDS011;67136;47.546;21.630;2023-05-21T11:45:52;5.20;;;3.42;;
77938;SDS011;67136;47.546;21.630;2023-05-21T11:48:57;7.72;;;4.00;;
77938;SDS011;67136;47.546;21.630;2023-05-21T11:52:01;5.87;;;3.30;;
77938;SDS011;67136;47.546;21.630;2023-05-21T11:55:04;6.57;;;3.50;;
77938;SDS011;67136;47.546;21.630;2023-05-21T11:58:08;8.07;;;3.60;;
77938;SDS011;67136;47.546;21.630;2023-05-21T12:01:23;5.10;;;3.83;;
77938;SDS011;67136;47.546;21.630;2023-05-21T12:04:29;5.40;;;4.07;;
77938;SDS011;67136;47.546;21.630;2023-05-21T12:07:32;7.13;;;3.60;;
77938;SDS011;67136;47.546;21.630;2023-05-21T12:10:37;8.07;;;4.12;;
77938;SDS011;67136;47.546;21.630;2023-05-21T12:13:40;7.07;;;3.90;;
77938;SDS011;67136;47.546;21.630;2023-05-21T12:16:43;4.15;;;3.40;;
77938;SDS011;67136;47.546;21.630;2023-05-21T12:19:46;4.90;;;4.10;;
77938;SDS011;67136;47.546;21.630;2023-05-21T12:22:50;9.87;;;3.80;;
77938;SDS011;67136;47.546;21.630;2023-05-21T12:25:53;4.97;;;3.47;;
77938;SDS011;67136;47.546;21.630;2023-05-21T12:28:56;7.05;;;4.10;;
77938;SDS011;67136;47.546;21.630;2023-05-21T12:31:59;9.80;;;3.83;;
77938;SDS011;67136;47.546;21.630;2023-05-21T12:35:08;4.25;;;3.50;;
77938;SDS011;67136;47.546;21.630;2023-05-21T12:38:21;6.00;;;3.43;;
77938;SDS011;67136;47.546;21.630;2023-05-21T12:41:24;5.50;;;3.80;;
77938;SDS011;67136;47.546;21.630;2023-05-21T12:44:31;5.82;;;3.70;;
77938;SDS011;67136;47.546;21.630;2023-05-21T12:47:40;4.12;;;3.72;;
77938;SDS011;67136;47.546;21.630;2023-05-21T12:50:43;4.18;;;3.72;;
77938;SDS011;67136;47.546;21.630;2023-05-21T12:53:47;4.47;;;3.83;;
77938;SDS011;67136;47.546;21.630;2023-05-21T12:56:51;7.35;;;3.72;;
77938;SDS011;67136;47.546;21.630;2023-05-21T12:59:58;5.80;;;3.62;;
77938;SDS011;67136;47.546;21.630;2023-05-21T13:03:03;4.35;;;3.78;;
77938;SDS011;67136;47.546;21.630;2023-05-21T13:06:08;5.55;;;3.90;;
77938;SDS011;67136;47.546;21.630;2023-05-21T13:09:10;5.53;;;3.93;;
77938;SDS011;67136;47.546;21.630;2023-05-21T13:12:16;6.47;;;3.70;;
77938;SDS011;67136;47.546;21.630;2023-05-21T13:15:21;5.40;;;3.55;;
77938;SDS011;67136;47.546;21.630;2023-05-21T13:18:26;6.18;;;4.25;;
77938;SDS011;67136;47.546;21.630;2023-05-21T13:21:29;4.57;;;3.78;;
77938;SDS011;67136;47.546;21.630;2023-05-21T13:24:32;5.43;;;3.70;;
77938;SDS011;67136;47.546;21.630;2023-05-21T13:27:34;4.50;;;3.60;;
77938;SDS011;67136;47.546;21.630;2023-05-21T13:30:37;4.75;;;3.50;;
77938;SDS011;67136;47.546;21.630;2023-05-21T13:33:40;6.47;;;3.20;;
77938;SDS011;67136;47.546;21.630;2023-05-21T13:36:43;5.75;;;3.60;;
77938;SDS011;67136;47.546;21.630;2023-05-21T13:39:46;5.87;;;3.70;;
77938;SDS011;67136;47.546;21.630;2023-05-21T13:42:58;4.05;;;3.55;;
77938;SDS011;67136;47.546;21.630;2023-05-21T13:46:04;5.05;;;3.70;;
77938;SDS011;67136;47.546;21.630;2023-05-21T13:49:06;7.40;;;3.83;;
77938;SDS011;67136;47.546;21.630;2023-05-21T13:52:10;5.75;;;3.60;;
77938;SDS011;67136;47.546;21.630;2023-05-21T13:55:13;4.57;;;3.77;;
77938;SDS011;67136;47.546;21.630;2023-05-21T13:58:17;6.20;;;3.80;;
77938;SDS011;67136;47.546;21.630;2023-05-21T14:01:22;7.20;;;3.87;;
77938;SDS011;67136;47.546;21.630;2023-05-21T14:04:28;7.37;;;3.83;;
77938;SDS011;67136;47.546;21.630;2023-05-21T14:07:35;6.28;;;3.58;;
77938;SDS011;67136;47.546;21.630;2023-05-21T14:10:38;5.07;;;3.67;;
77938;SDS011;67136;47.546;21.630;2023-05-21T14:13:41;4.70;;;3.45;;
77938;SDS011;67136;47.546;21.630;2023-05-21T14:16:45;9.60;;;4.47;;
77938;SDS011;67136;47.546;21.630;2023-05-21T14:19:52;5.78;;;4.07;;
77938;SDS011;67136;47.546;21.630;2023-05-21T14:22:56;6.57;;;3.53;;
77938;SDS011;67136;47.546;21.630;2023-05-21T14:25:58;5.77;;;3.63;;
77938;SDS011;67136;47.546;21.630;2023-05-21T14:29:01;4.10;;;3.28;;
77938;SDS011;67136;47.546;21.630;2023-05-21T14:32:05;5.80;;;3.72;;
77938;SDS011;67136;47.546;21.630;2023-05-21T14:35:08;5.45;;;3.58;;
77938;SDS011;67136;47.546;21.630;2023-05-21T14:38:11;5.00;;;3.55;;
77938;SDS011;67136;47.546;21.630;2023-05-21T14:41:13;5.97;;;3.30;;
77938;SDS011;67136;47.546;21.630;2023-05-21T14:44:20;6.05;;;3.05;;
77938;SDS011;67136;47.546;21.630;2023-05-21T14:47:23;5.30;;;3.85;;
77938;SDS011;67136;47.546;21.630;2023-05-21T14:50:26;9.52;;;3.50;;
77938;SDS011;67136;47.546;21.630;2023-05-21T14:53:29;8.85;;;3.65;;
77938;SDS011;67136;47.546;21.630;2023-05-21T14:56:32;4.23;;;3.40;;
77938;SDS011;67136;47.546;21.630;2023-05-21T14:59:35;4.28;;;3.10;;
77938;SDS011;67136;47.546;21.630;2023-05-21T15:02:37;6.53;;;3.40;;
77938;SDS011;67136;47.546;21.630;2023-05-21T15:05:40;7.15;;;3.53;;
77938;SDS011;67136;47.546;21.630;2023-05-21T15:08:44;5.53;;;2.95;;
77938;SDS011;67136;47.546;21.630;2023-05-21T15:11:47;6.20;;;3.30;;
77938;SDS011;67136;47.546;21.630;2023-05-21T15:14:53;10.05;;;3.40;;
77938;SDS011;67136;47.546;21.630;2023-05-21T15:17:56;6.35;;;3.42;;
77938;SDS011;67136;47.546;21.630;2023-05-21T15:20:59;5.40;;;3.20;;
77938;SDS011;67136;47.546;21.630;2023-05-21T15:24:02;5.45;;;3.17;;
77938;SDS011;67136;47.546;21.630;2023-05-21T15:27:05;4.67;;;2.90;;
77938;SDS011;67136;47.546;21.630;2023-05-21T15:30:11;5.30;;;3.40;;
77938;SDS011;67136;47.546;21.630;2023-05-21T15:33:14;4.37;;;3.22;;
77938;SDS011;67136;47.546;21.630;2023-05-21T15:36:17;5.93;;;3.20;;
77938;SDS011;67136;47.546;21.630;2023-05-21T15:39:30;6.32;;;2.70;;
77938;SDS011;67136;47.546;21.630;2023-05-21T15:42:32;3.63;;;2.93;;
77938;SDS011;67136;47.546;21.630;2023-05-21T15:45:35;6.82;;;3.00;;
77938;SDS011;67136;47.546;21.630;2023-05-21T15:48:44;3.62;;;2.72;;
77938;SDS011;67136;47.546;21.630;2023-05-21T15:51:47;7.18;;;2.80;;
77938;SDS011;67136;47.546;21.630;2023-05-21T15:54:54;7.85;;;2.75;;
77938;SDS011;67136;47.546;21.630;2023-05-21T15:58:02;5.57;;;2.60;;
77938;SDS011;67136;47.546;21.630;2023-05-21T16:01:05;5.90;;;2.87;;
77938;SDS011;67136;47.546;21.630;2023-05-21T16:04:08;6.57;;;2.65;;
77938;SDS011;67136;47.546;21.630;2023-05-21T16:07:11;5.95;;;2.70;;
77938;SDS011;67136;47.546;21.630;2023-05-21T16:10:13;5.05;;;3.12;;
77938;SDS011;67136;47.546;21.630;2023-05-21T16:13:16;9.53;;;2.67;;
77938;SDS011;67136;47.546;21.630;2023-05-21T16:16:19;7.00;;;2.70;;
77938;SDS011;67136;47.546;21.630;2023-05-21T16:19:25;4.37;;;2.70;;
77938;SDS011;67136;47.546;21.630;2023-05-21T16:22:28;5.68;;;2.78;;
77938;SDS011;67136;47.546;21.630;2023-05-21T16:25:31;3.72;;;2.72;;
77938;SDS011;67136;47.546;21.630;2023-05-21T16:28:42;4.03;;;2.67;;
77938;SDS011;67136;47.546;21.630;2023-05-21T16:31:51;3.92;;;3.12;;
77938;SDS011;67136;47.546;21.630;2023-05-21T16:35:06;6.95;;;3.03;;
77938;SDS011;67136;47.546;21.630;2023-05-21T16:38:08;9.52;;;3.08;;
77938;SDS011;67136;47.546;21.630;2023-05-21T16:41:11;5.47;;;2.80;;
77938;SDS011;67136;47.546;21.630;2023-05-21T16:44:14;5.87;;;2.50;;
77938;SDS011;67136;47.546;21.630;2023-05-21T16:47:17;2.60;;;2.35;;
77938;SDS011;67136;47.546;21.630;2023-05-21T16:50:20;7.18;;;2.58;;
77938;SDS011;67136;47.546;21.630;2023-05-21T16:53:35;3.50;;;2.25;;
77938;SDS011;67136;47.546;21.630;2023-05-21T16:56:40;6.68;;;2.42;;
77938;SDS011;67136;47.546;21.630;2023-05-21T16:59:43;7.23;;;2.90;;
77938;SDS011;67136;47.546;21.630;2023-05-21T17:02:45;3.80;;;2.60;;
77938;SDS011;67136;47.546;21.630;2023-05-21T17:05:48;7.78;;;2.58;;
77938;SDS011;67136;47.546;21.630;2023-05-21T17:08:51;4.82;;;2.87;;
77938;SDS011;67136;47.546;21.630;2023-05-21T17:11:55;4.65;;;2.53;;
77938;SDS011;67136;47.546;21.630;2023-05-21T17:14:59;4.87;;;2.70;;
77938;SDS011;67136;47.546;21.630;2023-05-21T17:18:01;4.15;;;2.85;;
77938;SDS011;67136;47.546;21.630;2023-05-21T17:21:04;6.43;;;2.83;;
77938;SDS011;67136;47.546;21.630;2023-05-21T17:24:07;6.80;;;3.08;;
77938;SDS011;67136;47.546;21.630;2023-05-21T17:27:09;6.45;;;2.70;;
77938;SDS011;67136;47.546;21.630;2023-05-21T17:30:12;5.53;;;3.20;;
77938;SDS011;67136;47.546;21.630;2023-05-21T17:33:15;5.37;;;3.17;;
77938;SDS011;67136;47.546;21.630;2023-05-21T17:36:18;5.10;;;3.20;;
77938;SDS011;67136;47.546;21.630;2023-05-21T17:39:21;5.70;;;2.72;;
77938;SDS011;67136;47.546;21.630;2023-05-21T17:42:24;5.40;;;2.87;;
77938;SDS011;67136;47.546;21.630;2023-05-21T17:45:27;5.90;;;2.90;;
77938;SDS011;67136;47.546;21.630;2023-05-21T17:48:30;4.47;;;2.70;;
77938;SDS011;67136;47.546;21.630;2023-05-21T17:51:35;8.95;;;3.40;;
77938;SDS011;67136;47.546;21.630;2023-05-21T17:54:38;11.57;;;3.60;;
77938;SDS011;67136;47.546;21.630;2023-05-21T17:57:41;9.98;;;3.53;;
77938;SDS011;67136;47.546;21.630;2023-05-21T18:00:49;7.67;;;3.10;;
77938;SDS011;67136;47.546;21.630;2023-05-21T18:03:52;6.35;;;3.42;;
77938;SDS011;67136;47.546;21.630;2023-05-21T18:06:54;5.60;;;3.22;;
77938;SDS011;67136;47.546;21.630;2023-05-21T18:09:57;8.90;;;3.05;;
77938;SDS011;67136;47.546;21.630;2023-05-21T18:13:00;6.95;;;3.33;;
77938;SDS011;67136;47.546;21.630;2023-05-21T18:16:03;5.00;;;3.10;;
77938;SDS011;67136;47.546;21.630;2023-05-21T18:19:06;12.50;;;3.17;;
77938;SDS011;67136;47.546;21.630;2023-05-21T18:22:09;6.03;;;3.50;;
77938;SDS011;67136;47.546;21.630;2023-05-21T18:25:13;8.65;;;3.70;;
77938;SDS011;67136;47.546;21.630;2023-05-21T18:28:15;6.47;;;3.53;;